createdAt,value
2018-02-02T00:02:04.583Z,35.53
2018-02-02T00:04:32.834Z,44.87
2018-02-02T00:07:01.861Z,35.27
2018-02-02T00:09:30.116Z,25.73
2018-02-02T00:11:58.418Z,31.13
2018-02-02T00:14:26.673Z,31.00
2018-02-02T00:16:54.941Z,32.80
2018-02-02T00:19:23.283Z,33.63
2018-02-02T00:21:51.487Z,20.27
2018-02-02T00:24:20.517Z,38.00
2018-02-02T00:26:48.781Z,22.20
2018-02-02T00:29:17.041Z,25.97
2018-02-02T00:31:46.065Z,35.80
2018-02-02T00:34:14.567Z,19.20
2018-02-02T00:36:44.484Z,19.63
2018-02-02T00:39:13.341Z,20.70
2018-02-02T00:41:42.033Z,24.87
2018-02-02T00:44:10.295Z,21.80
2018-02-02T00:46:39.316Z,27.93
2018-02-02T00:49:07.578Z,23.17
2018-02-02T00:51:41.449Z,33.13
2018-02-02T00:54:09.709Z,27.37
2018-02-02T00:56:37.968Z,28.23
2018-02-02T00:59:06.225Z,37.53
2018-02-02T01:01:34.486Z,34.13
2018-02-02T01:04:03.531Z,23.77
2018-02-02T01:06:31.793Z,19.70
2018-02-02T01:09:00.137Z,24.93
2018-02-02T01:11:28.345Z,27.93
2018-02-02T01:13:56.573Z,29.60
2018-02-02T01:16:25.618Z,24.53
2018-02-02T01:18:53.866Z,37.53
2018-02-02T01:21:24.152Z,22.40
2018-02-02T01:23:52.380Z,19.60
2018-02-02T01:26:20.645Z,33.23
2018-02-02T01:28:48.891Z,19.07
2018-02-02T01:31:17.169Z,20.40
2018-02-02T01:33:46.192Z,27.70
2018-02-02T01:36:15.200Z,19.40
2018-02-02T01:38:43.474Z,24.03
2018-02-02T01:41:12.469Z,23.33
2018-02-02T01:43:40.709Z,22.13
2018-02-02T01:46:11.461Z,20.00
2018-02-02T01:48:40.496Z,34.03
2018-02-02T01:51:08.744Z,14.40
2018-02-02T01:53:37.764Z,20.40
2018-02-02T01:56:06.324Z,25.23
2018-02-02T01:58:35.366Z,31.17
2018-02-02T02:01:03.609Z,17.70
2018-02-02T02:03:32.386Z,20.57
2018-02-02T02:06:01.413Z,21.47
2018-02-02T02:08:29.653Z,25.07
2018-02-02T02:10:58.684Z,17.17
2018-02-02T02:13:26.924Z,17.47
2018-02-02T02:15:55.943Z,22.23
2018-02-02T02:18:24.184Z,14.53
2018-02-02T02:20:53.201Z,27.97
2018-02-02T02:23:21.453Z,19.63
2018-02-02T02:25:49.752Z,20.07
2018-02-02T02:28:18.770Z,21.50
2018-02-02T02:30:47.013Z,11.17
2018-02-02T02:33:16.044Z,13.53
2018-02-02T02:35:44.312Z,23.17
2018-02-02T02:38:12.567Z,17.47
2018-02-02T02:40:41.582Z,15.00
2018-02-02T02:43:09.862Z,24.93
2018-02-02T02:45:38.850Z,15.80
2018-02-02T02:48:07.136Z,22.33
2018-02-02T02:50:35.377Z,22.50
2018-02-02T02:53:03.653Z,17.60
2018-02-02T02:55:32.660Z,26.53
2018-02-02T02:58:01.682Z,23.50
2018-02-02T03:00:29.933Z,19.57
2018-02-02T03:02:58.974Z,18.80
2018-02-02T03:05:27.212Z,15.20
2018-02-02T03:07:56.222Z,13.53
2018-02-02T03:10:24.472Z,19.50
2018-02-02T03:12:53.480Z,17.17
2018-02-02T03:15:22.502Z,25.47
2018-02-02T03:17:50.763Z,14.90
2018-02-02T03:20:19.149Z,20.63
2018-02-02T03:22:47.377Z,17.30
2018-02-02T03:25:15.683Z,18.27
2018-02-02T03:27:43.861Z,16.87
2018-02-02T03:30:12.137Z,16.37
2018-02-02T03:32:40.691Z,23.73
2018-02-02T03:35:08.942Z,13.50
2018-02-02T03:37:37.182Z,24.63
2018-02-02T03:40:05.426Z,20.17
2018-02-02T03:42:33.700Z,18.00
2018-02-02T03:45:01.945Z,26.87
2018-02-02T03:47:30.222Z,16.57
2018-02-02T03:49:58.451Z,16.87
2018-02-02T03:52:27.485Z,25.10
2018-02-02T03:54:55.771Z,21.53
2018-02-02T03:57:23.995Z,21.90
2018-02-02T03:59:53.014Z,33.53
2018-02-02T04:02:21.265Z,12.73
2018-02-02T04:04:50.284Z,17.30
2018-02-02T04:07:18.575Z,21.33
2018-02-02T04:09:46.820Z,15.83
2018-02-02T04:12:15.853Z,14.13
2018-02-02T04:14:44.108Z,19.13
2018-02-02T04:17:12.366Z,19.57
2018-02-02T04:19:41.380Z,16.37
2018-02-02T04:22:09.651Z,30.30
2018-02-02T04:24:38.652Z,20.27
2018-02-02T04:27:06.894Z,26.20
2018-02-02T04:29:35.152Z,18.23
2018-02-02T04:32:03.416Z,20.57
2018-02-02T04:34:31.664Z,25.63
2018-02-02T04:36:59.948Z,17.80
2018-02-02T04:39:28.204Z,14.20
2018-02-02T04:41:57.207Z,26.23
2018-02-02T04:44:25.482Z,14.70
2018-02-02T04:46:53.831Z,12.57
2018-02-02T04:49:22.074Z,13.10
2018-02-02T04:51:50.305Z,12.33
2018-02-02T04:54:19.344Z,12.63
2018-02-02T04:56:48.173Z,19.00
2018-02-02T04:59:17.966Z,9.97
2018-02-02T05:01:46.210Z,13.63
2018-02-02T05:04:14.449Z,9.30
2018-02-02T05:06:43.485Z,10.37
2018-02-02T05:09:11.725Z,11.03
2018-02-02T05:11:40.756Z,20.53
2018-02-02T05:14:08.995Z,11.00
2018-02-02T05:16:38.014Z,14.90
2018-02-02T05:19:06.260Z,8.67
2018-02-02T05:21:35.288Z,7.37
2018-02-02T05:24:03.627Z,6.90
2018-02-02T05:26:31.870Z,9.83
2018-02-02T05:29:00.099Z,7.20
2018-02-02T05:31:29.130Z,7.00
2018-02-02T05:33:57.420Z,7.33
2018-02-02T05:36:25.694Z,7.60
2018-02-02T05:38:54.021Z,8.83
2018-02-02T05:41:23.063Z,9.50
2018-02-02T05:43:51.325Z,7.37
2018-02-02T05:46:19.563Z,11.60
2018-02-02T05:48:47.822Z,9.27
2018-02-02T05:51:16.114Z,12.73
2018-02-02T05:53:44.341Z,6.80
2018-02-02T05:56:12.594Z,9.20
2018-02-02T05:58:41.609Z,8.37
2018-02-02T06:01:09.868Z,7.07
2018-02-02T06:03:38.115Z,4.73
2018-02-02T06:06:06.442Z,4.23
2018-02-02T06:08:34.694Z,3.43
2018-02-02T06:11:03.711Z,6.70
2018-02-02T06:13:32.001Z,6.30
2018-02-02T06:16:00.274Z,5.10
2018-02-02T06:18:28.662Z,8.10
2018-02-02T06:20:56.896Z,6.00
2018-02-02T06:23:25.136Z,3.50
2018-02-02T06:25:53.361Z,10.67
2018-02-02T06:28:21.629Z,5.30
2018-02-02T06:30:49.903Z,3.77
2018-02-02T06:33:18.934Z,7.13
2018-02-02T06:35:47.208Z,8.23
2018-02-02T06:38:15.439Z,3.67
2018-02-02T06:40:44.523Z,4.20
2018-02-02T06:43:12.813Z,2.80
2018-02-02T06:45:41.872Z,4.27
2018-02-02T06:48:10.133Z,2.80
2018-02-02T06:50:38.426Z,9.60
2018-02-02T06:53:06.638Z,2.90
2018-02-02T06:55:35.662Z,6.77
2018-02-02T06:58:03.909Z,5.20
2018-02-02T07:00:33.832Z,4.80
2018-02-02T07:03:02.042Z,8.47
2018-02-02T07:05:30.301Z,5.57
2018-02-02T07:07:59.298Z,5.77
2018-02-02T07:10:27.553Z,7.03
2018-02-02T07:12:55.826Z,10.00
2018-02-02T07:15:25.589Z,9.30
2018-02-02T07:17:53.804Z,10.13
2018-02-02T07:20:22.069Z,17.20
2018-02-02T07:22:50.303Z,16.60
2018-02-02T07:25:19.326Z,16.13
2018-02-02T07:27:47.549Z,18.50
2018-02-02T07:30:16.594Z,20.50
2018-02-02T07:32:44.902Z,29.97
2018-02-02T07:35:13.192Z,15.97
2018-02-02T07:37:41.401Z,27.50
2018-02-02T07:40:09.665Z,15.87
2018-02-02T07:42:38.692Z,19.43
2018-02-02T07:45:06.935Z,21.77
2018-02-02T07:47:35.967Z,26.53
2018-02-02T07:50:04.245Z,29.20
2018-02-02T07:52:32.522Z,28.57
2018-02-02T07:55:00.848Z,34.10
2018-02-02T07:57:29.050Z,32.70
2018-02-02T07:59:57.316Z,28.40
2018-02-02T08:02:25.577Z,32.97
2018-02-02T08:04:54.626Z,24.03
2018-02-02T08:07:22.876Z,28.93
2018-02-02T08:09:51.888Z,23.67
2018-02-02T08:12:20.125Z,29.17
2018-02-02T08:14:49.163Z,30.63
2018-02-02T08:17:17.413Z,28.53
2018-02-02T08:19:45.684Z,30.90
2018-02-02T08:22:14.681Z,35.57
2018-02-02T08:24:43.736Z,38.77
2018-02-02T08:27:11.979Z,24.73
2018-02-02T08:29:40.239Z,31.10
2018-02-02T08:32:09.270Z,24.77
2018-02-02T08:34:37.528Z,34.03
2018-02-02T08:37:05.780Z,23.93
2018-02-02T08:39:34.793Z,29.00
2018-02-02T08:42:03.055Z,21.67
2018-02-02T08:44:32.076Z,32.43
2018-02-02T08:47:00.407Z,26.83
2018-02-02T08:49:28.626Z,28.03
2018-02-02T08:51:57.331Z,22.60
2018-02-02T08:54:25.603Z,34.47
2018-02-02T08:56:53.836Z,30.07
2018-02-02T08:59:22.869Z,22.03
2018-02-02T09:01:56.870Z,29.77
2018-02-02T09:04:25.899Z,33.90
2018-02-02T09:06:54.117Z,33.77
2018-02-02T09:09:23.142Z,26.17
2018-02-02T09:11:51.396Z,34.83
2018-02-02T09:14:20.424Z,34.33
2018-02-02T09:16:48.683Z,21.97
2018-02-02T09:19:17.762Z,23.33
2018-02-02T09:21:53.724Z,25.80
2018-02-02T09:24:22.757Z,26.67
2018-02-02T09:26:51.045Z,18.50
2018-02-02T09:29:19.298Z,20.40
2018-02-02T09:31:47.534Z,30.43
2018-02-02T09:34:15.794Z,21.77
2018-02-02T09:36:44.045Z,31.47
2018-02-02T09:39:12.520Z,20.43
2018-02-02T09:41:41.498Z,16.93
2018-02-02T09:44:09.802Z,15.43
2018-02-02T09:46:38.966Z,15.37
2018-02-02T09:49:07.196Z,17.90
2018-02-02T09:51:35.507Z,22.53
2018-02-02T09:54:04.573Z,13.40
2018-02-02T09:56:32.841Z,13.33
2018-02-02T09:59:01.115Z,15.23
2018-02-02T10:01:29.364Z,18.47
2018-02-02T10:03:57.664Z,20.10
2018-02-02T10:06:25.874Z,16.03
2018-02-02T10:08:54.902Z,15.13
2018-02-02T10:11:23.248Z,23.13
2018-02-02T10:13:51.557Z,12.67
2018-02-02T10:16:20.748Z,16.83
2018-02-02T10:18:49.788Z,14.57
2018-02-02T10:21:18.047Z,10.63
2018-02-02T10:23:46.303Z,10.17
2018-02-02T10:26:14.556Z,17.27
2018-02-02T10:28:42.893Z,12.60
2018-02-02T10:31:11.123Z,10.73
2018-02-02T10:33:40.150Z,9.30
2018-02-02T10:36:08.379Z,7.53
2018-02-02T10:38:37.412Z,7.40
2018-02-02T10:41:06.548Z,11.70
2018-02-02T10:43:34.892Z,6.90
2018-02-02T10:46:03.926Z,7.80
2018-02-02T10:48:32.180Z,8.90
2018-02-02T10:51:00.459Z,7.97
2018-02-02T10:53:28.686Z,7.07
2018-02-02T10:55:57.717Z,6.80
2018-02-02T10:58:26.481Z,5.63
2018-02-02T11:01:00.450Z,6.10
2018-02-02T11:06:31.057Z,9.30
2018-02-02T11:09:00.097Z,5.87
2018-02-02T11:11:28.454Z,4.50
2018-02-02T11:13:57.293Z,6.97
2018-02-02T11:16:25.529Z,5.80
2018-02-02T11:18:53.886Z,6.90
2018-02-02T11:21:22.476Z,5.57
2018-02-02T11:23:50.725Z,9.33
2018-02-02T11:26:19.747Z,5.07
2018-02-02T11:28:48.014Z,5.73
2018-02-02T11:31:16.218Z,5.40
2018-02-02T11:33:44.493Z,3.20
2018-02-02T11:36:13.067Z,6.33
2018-02-02T11:38:41.353Z,7.17
2018-02-02T11:41:09.626Z,4.70
2018-02-02T11:43:37.936Z,4.17
2018-02-02T11:46:06.246Z,4.10
2018-02-02T11:48:35.197Z,8.00
2018-02-02T11:51:03.502Z,4.80
2018-02-02T11:53:32.580Z,6.77
2018-02-02T11:56:00.828Z,4.13
2018-02-02T11:58:29.062Z,3.43
2018-02-02T12:00:58.122Z,6.70
2018-02-02T12:03:26.380Z,7.70
2018-02-02T12:05:54.630Z,18.03
2018-02-02T12:08:23.658Z,6.33
2018-02-02T12:10:51.924Z,12.70
2018-02-02T12:13:20.194Z,2.30
2018-02-02T12:15:48.437Z,3.17
2018-02-02T12:18:18.222Z,4.60
2018-02-02T12:20:47.273Z,4.33
2018-02-02T12:23:24.209Z,11.23
2018-02-02T12:25:58.192Z,7.53
2018-02-02T12:28:32.301Z,57.00
2018-02-02T12:31:18.422Z,9.40
2018-02-02T12:34:02.493Z,24.00
2018-02-02T12:36:31.375Z,4.17
2018-02-02T12:38:59.649Z,19.00
2018-02-02T12:41:28.356Z,10.80
2018-02-02T12:43:58.104Z,6.10
2018-02-02T12:46:26.376Z,6.43
2018-02-02T12:48:59.539Z,8.00
2018-02-02T12:51:28.576Z,8.27
2018-02-02T12:53:56.854Z,7.40
2018-02-02T12:56:25.186Z,11.23
2018-02-02T12:58:53.449Z,6.70
2018-02-02T13:01:21.706Z,13.20
2018-02-02T13:03:50.008Z,11.60
2018-02-02T13:06:18.284Z,10.40
2018-02-02T13:08:46.541Z,8.03
2018-02-02T13:11:14.771Z,13.00
2018-02-02T13:13:43.036Z,9.67
2018-02-02T13:16:12.072Z,15.87
2018-02-02T13:18:40.334Z,11.67
2018-02-02T13:21:08.635Z,17.10
2018-02-02T13:23:36.923Z,15.33
2018-02-02T13:26:05.244Z,22.33
2018-02-02T13:28:33.542Z,16.70
2018-02-02T13:31:02.574Z,20.53
2018-02-02T13:33:30.869Z,11.93
2018-02-02T13:35:59.123Z,12.30
2018-02-02T13:38:27.364Z,17.60
2018-02-02T13:40:55.665Z,27.27
2018-02-02T13:43:23.902Z,15.33
2018-02-02T13:45:52.957Z,13.57
2018-02-02T13:48:21.298Z,16.70
2018-02-02T13:50:50.278Z,17.83
2018-02-02T13:53:19.321Z,16.63
2018-02-02T13:55:47.541Z,13.47
2018-02-02T13:58:16.566Z,15.80
2018-02-02T14:00:44.834Z,16.10
2018-02-02T14:03:13.079Z,14.77
2018-02-02T14:05:41.356Z,23.10
2018-02-02T14:08:09.643Z,20.73
2018-02-02T14:10:37.899Z,17.97
2018-02-02T14:13:06.225Z,12.73
2018-02-02T14:15:34.478Z,25.87
2018-02-02T14:18:03.532Z,18.43
2018-02-02T14:20:31.772Z,21.27
2018-02-02T14:23:00.032Z,16.43
2018-02-02T14:25:28.312Z,18.83
2018-02-02T14:27:57.371Z,20.20
2018-02-02T14:30:25.594Z,27.03
2018-02-02T14:32:53.891Z,14.50
2018-02-02T14:35:22.153Z,21.73
2018-02-02T14:37:50.443Z,16.43
2018-02-02T14:40:18.740Z,20.90
2018-02-02T14:42:47.087Z,39.90
2018-02-02T14:45:15.813Z,59.20
2018-02-02T14:47:44.070Z,20.90
2018-02-02T14:50:12.396Z,19.23
2018-02-02T14:52:40.636Z,25.50
2018-02-02T14:55:09.383Z,25.07
2018-02-02T14:57:38.434Z,16.20
2018-02-02T15:00:06.704Z,16.50
2018-02-02T15:02:35.002Z,13.00
2018-02-02T15:05:03.254Z,16.03
2018-02-02T15:07:31.564Z,17.87
2018-02-02T15:09:59.784Z,15.00
2018-02-02T15:12:28.823Z,18.97
2018-02-02T15:14:57.066Z,17.33
2018-02-02T15:17:25.332Z,9.57
2018-02-02T15:19:53.578Z,15.67
2018-02-02T15:22:24.278Z,18.43
2018-02-02T15:24:52.569Z,14.33
2018-02-02T15:27:20.833Z,12.27
2018-02-02T15:29:49.060Z,19.70
2018-02-02T15:32:18.097Z,12.00
2018-02-02T15:34:46.380Z,16.60
2018-02-02T15:37:14.655Z,17.10
2018-02-02T15:39:42.896Z,14.40
2018-02-02T15:42:11.177Z,20.50
2018-02-02T15:44:40.297Z,18.37
2018-02-02T15:47:08.594Z,22.17
2018-02-02T15:49:36.861Z,18.27
2018-02-02T15:52:05.146Z,27.43
2018-02-02T15:54:33.410Z,25.70
2018-02-02T15:57:01.729Z,22.80
2018-02-02T15:59:31.531Z,23.47
2018-02-02T16:02:01.333Z,22.47
2018-02-02T16:04:29.615Z,23.83
2018-02-02T16:06:57.842Z,27.30
2018-02-02T16:09:26.122Z,19.20
2018-02-02T16:11:54.522Z,22.53
2018-02-02T16:14:22.762Z,26.13
2018-02-02T16:16:51.797Z,23.37
2018-02-02T16:19:20.102Z,23.10
2018-02-02T16:21:48.388Z,29.67
2018-02-02T16:24:16.603Z,29.00
2018-02-02T16:26:44.933Z,33.27
2018-02-02T16:29:13.766Z,30.20
2018-02-02T16:31:42.778Z,30.37
2018-02-02T16:34:11.943Z,35.50
2018-02-02T16:36:41.059Z,32.40
2018-02-02T16:39:10.214Z,34.90
2018-02-02T16:41:38.484Z,28.17
2018-02-02T16:44:06.837Z,30.53
2018-02-02T16:46:35.097Z,32.30
2018-02-02T16:49:03.382Z,29.20
2018-02-02T16:51:31.733Z,33.17
2018-02-02T16:54:00.053Z,24.40
2018-02-02T16:56:28.340Z,30.63
2018-02-02T16:59:00.281Z,27.67
2018-02-02T17:01:29.314Z,26.17
2018-02-02T17:03:57.563Z,29.10
2018-02-02T17:06:25.874Z,38.07
2018-02-02T17:08:54.846Z,132.73
2018-02-02T17:11:23.306Z,35.00
2018-02-02T17:13:51.616Z,43.27
2018-02-02T17:16:19.909Z,32.90
2018-02-02T17:18:49.764Z,29.67
2018-02-02T17:21:18.774Z,30.57
2018-02-02T17:23:47.123Z,24.60
2018-02-02T17:26:16.911Z,28.67
2018-02-02T17:28:45.151Z,25.53
2018-02-02T17:31:13.458Z,26.93
2018-02-02T17:33:41.746Z,39.13
2018-02-02T17:36:10.137Z,28.80
2018-02-02T17:38:38.375Z,23.47
2018-02-02T17:41:06.641Z,24.53
2018-02-02T17:43:34.868Z,29.90
2018-02-02T17:46:03.139Z,23.50
2018-02-02T17:48:31.365Z,23.53
2018-02-02T17:50:59.807Z,26.90
2018-02-02T17:53:28.119Z,29.17
2018-02-02T17:55:57.113Z,33.33
2018-02-02T17:58:26.396Z,25.37
2018-02-02T18:01:01.188Z,25.93
2018-02-02T18:03:31.015Z,34.17
2018-02-02T18:05:59.268Z,22.00
2018-02-02T18:08:27.541Z,61.93
2018-02-02T18:10:55.840Z,28.17
2018-02-02T18:13:24.364Z,22.40
2018-02-02T18:15:52.648Z,22.27
2018-02-02T18:18:20.925Z,26.43
2018-02-02T18:20:49.579Z,27.50
2018-02-02T18:23:18.685Z,31.13
2018-02-02T18:25:47.746Z,26.20
2018-02-02T18:28:16.167Z,24.50
2018-02-02T18:30:44.479Z,25.90
2018-02-02T18:33:13.531Z,24.83
2018-02-02T18:35:41.797Z,20.77
2018-02-02T18:38:10.855Z,29.23
2018-02-02T18:40:39.206Z,25.80
2018-02-02T18:43:07.609Z,27.03
2018-02-02T18:45:35.934Z,22.70
2018-02-02T18:48:04.875Z,34.97
2018-02-02T18:50:33.900Z,30.03
2018-02-02T18:53:02.206Z,27.70
2018-02-02T18:55:31.964Z,37.90
2018-02-02T18:58:00.250Z,60.40
2018-02-02T19:00:28.776Z,27.40
2018-02-02T19:02:57.157Z,32.43
2018-02-02T19:05:27.393Z,26.63
2018-02-02T19:07:57.246Z,25.20
2018-02-02T19:10:25.600Z,39.57
2018-02-02T19:12:54.657Z,33.30
2018-02-02T19:15:22.910Z,38.73
2018-02-02T19:17:51.202Z,33.90
2018-02-02T19:20:19.513Z,48.63
2018-02-02T19:22:47.780Z,38.30
2018-02-02T19:25:16.816Z,39.90
2018-02-02T19:27:46.034Z,31.03
2018-02-02T19:30:14.279Z,43.83
2018-02-02T19:32:42.786Z,34.67
2018-02-02T19:35:11.062Z,40.33
2018-02-02T19:37:39.317Z,33.90
2018-02-02T19:40:08.378Z,41.27
2018-02-02T19:42:36.735Z,35.50
2018-02-02T19:45:05.063Z,38.00
2018-02-02T19:47:34.092Z,48.70
2018-02-02T19:50:02.365Z,39.03
2018-02-02T19:52:30.802Z,40.40
2018-02-02T19:54:59.047Z,41.20
2018-02-02T19:57:27.343Z,34.07
2018-02-02T19:59:55.665Z,49.40
2018-02-02T20:02:24.005Z,33.57
2018-02-02T20:04:52.282Z,43.07
2018-02-02T20:07:20.598Z,43.97
2018-02-02T20:09:49.761Z,38.23
2018-02-02T20:12:18.042Z,33.27
2018-02-02T20:14:46.294Z,46.43
2018-02-02T20:17:14.575Z,38.80
2018-02-02T20:19:42.833Z,42.30
2018-02-02T20:22:11.138Z,47.17
2018-02-02T20:24:39.465Z,37.10
2018-02-02T20:27:08.623Z,33.63
2018-02-02T20:29:36.902Z,39.93
2018-02-02T20:32:05.215Z,41.60
2018-02-02T20:34:34.585Z,38.67
2018-02-02T20:37:03.733Z,36.80
2018-02-02T20:39:32.047Z,32.23
2018-02-02T20:42:01.948Z,35.33
2018-02-02T20:44:30.223Z,37.07
2018-02-02T20:46:58.729Z,42.30
2018-02-02T20:49:27.111Z,47.43
2018-02-02T20:51:55.389Z,35.63
2018-02-02T20:54:23.675Z,35.87
2018-02-02T20:56:52.193Z,46.90
2018-02-02T20:59:20.644Z,50.13
2018-02-02T21:01:48.924Z,34.87
2018-02-02T21:04:17.198Z,36.83
2018-02-02T21:06:45.522Z,33.00
2018-02-02T21:09:14.376Z,36.70
2018-02-02T21:11:43.453Z,39.53
2018-02-02T21:14:11.761Z,40.30
2018-02-02T21:16:40.831Z,44.13
2018-02-02T21:19:09.897Z,44.53
2018-02-02T21:21:38.163Z,42.00
2018-02-02T21:24:06.433Z,50.13
2018-02-02T21:26:35.057Z,57.30
2018-02-02T21:29:03.393Z,48.73
2018-02-02T21:31:32.479Z,48.67
2018-02-02T21:34:00.708Z,49.67
2018-02-02T21:36:29.033Z,49.67
2018-02-02T21:38:58.047Z,53.93
2018-02-02T21:41:26.308Z,50.27
2018-02-02T21:43:54.591Z,49.30
2018-02-02T21:46:22.891Z,53.53
2018-02-02T21:48:51.224Z,46.27
2018-02-02T21:51:20.984Z,60.93
2018-02-02T21:53:49.225Z,46.97
2018-02-02T21:56:17.521Z,52.50
2018-02-02T21:58:45.821Z,50.50
2018-02-02T22:01:14.073Z,52.33
2018-02-02T22:03:42.343Z,55.57
2018-02-02T22:06:10.683Z,54.87
2018-02-02T22:08:38.933Z,52.07
2018-02-02T22:11:07.316Z,49.50
2018-02-02T22:13:35.562Z,54.30
2018-02-02T22:16:03.840Z,50.47
2018-02-02T22:18:32.185Z,42.73
2018-02-02T22:21:00.420Z,60.10
2018-02-02T22:23:28.694Z,42.53
2018-02-02T22:25:57.083Z,55.07
2018-02-02T22:28:25.380Z,60.87
2018-02-02T22:30:53.696Z,41.77
2018-02-02T22:33:21.946Z,43.53
2018-02-02T22:35:50.986Z,40.10
2018-02-02T22:38:19.262Z,38.90
2018-02-02T22:40:47.533Z,33.30
2018-02-02T22:43:15.847Z,32.73
2018-02-02T22:45:44.154Z,29.10
2018-02-02T22:48:13.221Z,27.53
2018-02-02T22:50:41.434Z,28.57
2018-02-02T22:53:10.494Z,29.03
2018-02-02T22:55:38.761Z,32.23
2018-02-02T22:58:07.011Z,26.77
2018-02-02T23:00:35.316Z,28.70
2018-02-02T23:03:03.597Z,29.80
2018-02-02T23:05:31.876Z,27.43
2018-02-02T23:08:00.149Z,24.33
2018-02-02T23:10:28.457Z,29.10
2018-02-02T23:12:56.765Z,28.70
2018-02-02T23:15:25.079Z,32.23
2018-02-02T23:17:53.414Z,25.87
2018-02-02T23:20:21.700Z,25.57
2018-02-02T23:22:50.746Z,29.87
2018-02-02T23:25:19.021Z,33.03
2018-02-02T23:27:47.256Z,34.83
2018-02-02T23:30:15.562Z,26.30
2018-02-02T23:32:44.669Z,24.43
2018-02-02T23:35:12.926Z,31.20
2018-02-02T23:37:41.165Z,30.50
2018-02-02T23:40:10.179Z,27.13
2018-02-02T23:42:38.477Z,25.00
2018-02-02T23:45:07.457Z,39.70
2018-02-02T23:47:35.745Z,25.37
2018-02-02T23:50:04.021Z,24.00
2018-02-02T23:52:32.295Z,22.30
2018-02-02T23:55:00.580Z,25.80
2018-02-02T23:57:28.834Z,21.87
2018-02-02T23:59:57.118Z,23.67
